createdAt,value
2022-09-07T00:01:39.538Z,1.80
2022-09-07T00:07:02.608Z,1.98
2022-09-07T00:12:25.162Z,2.03
2022-09-07T00:17:47.703Z,1.73
2022-09-07T00:23:10.022Z,1.57
2022-09-07T00:28:33.203Z,2.17
2022-09-07T00:33:59.308Z,1.93
2022-09-07T00:39:21.768Z,1.70
2022-09-07T00:44:44.274Z,1.90
2022-09-07T00:50:44.271Z,2.20
2022-09-07T00:56:07.955Z,1.88
2022-09-07T01:01:30.767Z,1.80
2022-09-07T01:06:55.230Z,1.63
2022-09-07T01:12:17.667Z,1.87
2022-09-07T01:17:52.994Z,2.00
2022-09-07T01:23:35.987Z,1.90
2022-09-07T01:29:07.940Z,2.07
2022-09-07T01:34:31.161Z,2.10
2022-09-07T01:39:57.568Z,2.10
2022-09-07T01:45:25.675Z,2.03
2022-09-07T01:50:56.637Z,1.80
2022-09-07T01:56:27.486Z,2.00
2022-09-07T02:02:16.813Z,2.23
2022-09-07T02:07:49.756Z,1.90
2022-09-07T02:13:18.031Z,2.10
2022-09-07T02:19:04.820Z,2.27
2022-09-07T02:24:34.118Z,2.00
2022-09-07T02:29:56.737Z,2.23
2022-09-07T02:35:19.352Z,2.33
2022-09-07T02:40:41.822Z,2.43
2022-09-07T02:46:23.075Z,2.10
2022-09-07T02:52:11.436Z,2.13
2022-09-07T02:57:58.994Z,1.93
2022-09-07T03:03:34.195Z,2.10
2022-09-07T03:08:59.183Z,2.20
2022-09-07T03:14:24.763Z,2.07
2022-09-07T03:19:46.985Z,2.10
2022-09-07T03:25:10.182Z,2.30
2022-09-07T03:30:33.004Z,2.03
2022-09-07T03:36:00.764Z,2.23
2022-09-07T03:41:23.164Z,2.47
2022-09-07T03:46:45.357Z,2.10
2022-09-07T03:52:07.915Z,2.10
2022-09-07T03:57:30.082Z,2.27
2022-09-07T04:02:52.632Z,2.57
2022-09-07T04:08:14.917Z,2.53
2022-09-07T04:13:37.731Z,2.27
2022-09-07T04:19:00.182Z,2.27
2022-09-07T04:24:23.222Z,2.90
2022-09-07T04:29:45.547Z,2.60
2022-09-07T04:35:07.944Z,2.33
2022-09-07T04:40:30.270Z,2.57
2022-09-07T04:45:52.798Z,2.73
2022-09-07T04:51:16.249Z,3.50
2022-09-07T04:56:38.444Z,2.90
2022-09-07T05:02:01.084Z,2.80
2022-09-07T05:07:23.594Z,2.40
2022-09-07T05:12:46.731Z,2.80
2022-09-07T05:18:09.133Z,3.00
2022-09-07T05:23:31.655Z,3.53
2022-09-07T05:34:36.948Z,2.63
2022-09-07T05:39:59.342Z,4.27
2022-09-07T05:45:21.785Z,3.07
2022-09-07T05:50:51.647Z,2.90
2022-09-07T05:56:14.639Z,2.90
2022-09-07T06:01:36.855Z,2.70
2022-09-07T06:07:20.727Z,3.13
2022-09-07T06:12:48.452Z,2.60
2022-09-07T06:18:12.013Z,2.93
2022-09-07T06:23:36.571Z,3.23
2022-09-07T06:28:59.121Z,3.03
2022-09-07T06:34:22.944Z,3.47
2022-09-07T06:39:45.237Z,2.97
2022-09-07T06:45:07.860Z,3.10
2022-09-07T06:50:30.246Z,3.70
2022-09-07T06:55:53.482Z,3.27
2022-09-07T07:01:18.042Z,3.17
2022-09-07T07:06:40.510Z,3.47
2022-09-07T07:12:03.021Z,3.33
2022-09-07T07:17:25.523Z,2.87
2022-09-07T07:22:54.562Z,3.03
2022-09-07T07:33:59.452Z,3.23
2022-09-07T07:51:21.156Z,3.60
2022-09-07T07:56:43.623Z,3.67
2022-09-07T08:02:08.921Z,3.65
2022-09-07T08:07:31.314Z,3.25
2022-09-07T08:12:53.741Z,3.60
2022-09-07T08:18:17.210Z,3.60
2022-09-07T08:23:40.257Z,3.58
2022-09-07T08:29:02.747Z,3.60
2022-09-07T08:34:24.947Z,4.20
2022-09-07T08:39:47.127Z,3.70
2022-09-07T08:45:14.899Z,3.90
2022-09-07T08:50:46.103Z,3.90
2022-09-07T08:56:19.131Z,4.43
2022-09-07T09:02:26.324Z,4.43
2022-09-07T09:07:38.910Z,4.50
2022-09-07T09:13:15.857Z,4.95
2022-09-07T09:19:05.434Z,5.10
2022-09-07T09:24:37.715Z,3.92
2022-09-07T09:30:00.328Z,4.50
2022-09-07T09:35:34.596Z,4.18
2022-09-07T09:41:00.426Z,3.83
2022-09-07T09:46:37.743Z,3.88
2022-09-07T10:09:22.364Z,4.10
2022-09-07T10:14:47.199Z,4.22
2022-09-07T10:20:21.526Z,5.30
2022-09-07T10:25:47.632Z,4.05
2022-09-07T10:31:25.212Z,4.60
2022-09-07T10:37:11.220Z,5.07
2022-09-07T10:42:38.520Z,5.32
2022-09-07T10:48:24.444Z,5.07
2022-09-07T10:54:30.384Z,4.75
2022-09-07T11:00:16.301Z,5.63
2022-09-07T11:05:51.176Z,6.30
2022-09-07T11:17:20.800Z,5.88
2022-09-07T11:22:49.890Z,6.35
2022-09-07T11:28:21.070Z,6.05
2022-09-07T11:40:06.894Z,6.03
2022-09-07T11:45:51.319Z,6.20
2022-09-07T11:51:29.931Z,5.90
2022-09-07T11:57:06.943Z,5.80
2022-09-07T12:03:01.089Z,6.55
2022-09-07T12:08:29.765Z,5.93
2022-09-07T12:13:51.826Z,6.35
2022-09-07T12:19:18.180Z,6.38
2022-09-07T12:24:45.398Z,6.50
2022-09-07T12:30:13.476Z,6.25
2022-09-07T12:35:42.843Z,6.28
2022-09-07T12:41:23.964Z,6.35
2022-09-07T12:46:50.810Z,5.57
2022-09-07T12:52:43.333Z,5.63
2022-09-07T12:58:14.159Z,6.15
2022-09-07T13:04:17.562Z,6.57
2022-09-07T13:09:41.574Z,6.40
2022-09-07T13:15:05.681Z,5.70
2022-09-07T13:20:36.067Z,5.97
2022-09-07T13:26:02.374Z,6.30
2022-09-07T13:31:37.109Z,6.18
2022-09-07T13:37:00.900Z,5.80
2022-09-07T13:42:30.274Z,5.90
2022-09-07T13:48:19.196Z,5.65
2022-09-07T13:53:44.710Z,5.97
2022-09-07T13:59:36.326Z,6.22
2022-09-07T14:05:00.587Z,6.18
2022-09-07T14:10:25.648Z,6.03
2022-09-07T14:15:50.436Z,5.93
2022-09-07T14:21:19.044Z,5.65
2022-09-07T14:26:49.176Z,5.70
2022-09-07T14:32:23.699Z,5.40
2022-09-07T14:37:47.636Z,5.65
2022-09-07T14:43:29.567Z,5.30
2022-09-07T14:49:05.020Z,5.90
2022-09-07T14:54:34.043Z,5.57
2022-09-07T14:59:57.465Z,5.65
2022-09-07T15:05:23.260Z,5.68
2022-09-07T15:11:32.964Z,6.30
2022-09-07T15:16:34.652Z,5.85
2022-09-07T15:21:57.083Z,5.75
2022-09-07T15:27:28.846Z,5.32
2022-09-07T15:32:51.299Z,5.28
2022-09-07T15:43:56.812Z,5.60
2022-09-07T15:49:19.533Z,6.40
2022-09-07T15:54:43.463Z,5.57
2022-09-07T16:00:07.362Z,5.07
2022-09-07T16:05:34.970Z,5.07
2022-09-07T16:11:05.485Z,5.30
2022-09-07T16:23:13.300Z,5.15
2022-09-07T16:27:57.283Z,4.90
2022-09-07T16:33:21.105Z,5.25
2022-09-07T16:38:48.350Z,4.97
2022-09-07T16:44:11.276Z,5.15
2022-09-07T16:49:33.738Z,5.80
2022-09-07T16:54:56.016Z,6.15
2022-09-07T17:00:18.412Z,6.93
2022-09-07T17:05:41.273Z,6.07
2022-09-07T17:11:12.567Z,6.22
2022-09-07T17:16:38.123Z,5.35
2022-09-07T17:22:00.837Z,5.70
2022-09-07T17:27:23.556Z,5.75
2022-09-07T17:32:46.000Z,5.25
2022-09-07T17:43:56.173Z,6.28
2022-09-07T17:49:18.336Z,5.57
2022-09-07T17:54:40.715Z,4.90
2022-09-07T18:00:11.804Z,5.05
2022-09-07T18:05:34.644Z,7.32
2022-09-07T18:16:50.221Z,8.10
2022-09-07T18:22:13.035Z,7.55
2022-09-07T18:27:36.915Z,7.38
2022-09-07T18:32:59.424Z,7.50
2022-09-07T18:38:22.421Z,7.88
2022-09-07T18:43:47.064Z,7.00
2022-09-07T18:49:09.158Z,8.32
2022-09-07T18:54:31.415Z,8.82
2022-09-07T18:59:53.746Z,8.43
2022-09-07T19:11:09.601Z,9.27
2022-09-07T19:16:32.971Z,9.20
2022-09-07T19:21:57.671Z,9.10
2022-09-07T19:27:20.147Z,9.95
2022-09-07T19:32:42.966Z,9.75
2022-09-07T19:38:05.741Z,9.27
2022-09-07T19:43:33.701Z,9.45
2022-09-07T19:48:56.707Z,9.20
2022-09-07T19:54:19.243Z,10.85
2022-09-07T19:59:41.877Z,10.35
2022-09-07T20:05:05.123Z,10.32
2022-09-07T20:10:27.974Z,9.23
2022-09-07T20:15:50.438Z,7.85
2022-09-07T20:21:22.021Z,8.32
2022-09-07T20:26:44.288Z,7.97
2022-09-07T20:32:06.889Z,7.82
2022-09-07T20:37:28.975Z,6.88
2022-09-07T20:42:51.684Z,6.25
2022-09-07T20:48:15.190Z,5.88
2022-09-07T20:53:38.042Z,6.38
2022-09-07T20:59:02.378Z,6.18
2022-09-07T21:04:26.476Z,5.60
2022-09-07T21:09:49.442Z,5.28
2022-09-07T21:15:11.648Z,5.68
2022-09-07T21:20:34.540Z,5.43
2022-09-07T21:25:57.960Z,5.13
2022-09-07T21:31:20.412Z,5.40
2022-09-07T21:36:44.293Z,5.47
2022-09-07T21:42:06.670Z,4.93
2022-09-07T21:47:28.867Z,5.32
2022-09-07T21:52:51.096Z,5.40
2022-09-07T21:58:13.336Z,5.20
2022-09-07T22:03:35.510Z,5.07
2022-09-07T22:08:58.747Z,4.90
2022-09-07T22:14:20.773Z,5.10
2022-09-07T22:19:45.127Z,4.60
2022-09-07T22:25:07.639Z,5.20
2022-09-07T22:30:29.790Z,4.60
2022-09-07T22:35:52.008Z,4.60
2022-09-07T22:41:20.117Z,4.33
2022-09-07T22:46:44.498Z,4.70
2022-09-07T22:52:07.079Z,4.82
2022-09-07T22:57:29.804Z,3.90
2022-09-07T23:02:52.331Z,4.00
2022-09-07T23:08:14.690Z,4.23
2022-09-07T23:13:37.209Z,4.33
2022-09-07T23:19:00.723Z,4.53
2022-09-07T23:24:23.323Z,4.70
2022-09-07T23:29:46.546Z,4.03
2022-09-07T23:35:11.703Z,3.97
2022-09-07T23:40:36.157Z,3.90
2022-09-07T23:45:59.952Z,4.30
2022-09-07T23:51:24.740Z,3.90
2022-09-07T23:56:47.053Z,3.30
